Time;durP1;ratioP1;P1;durP2;ratioP2;P2;SDS_P1;SDS_P2;PMS_P1;PMS_P2;Temp;Humidity;BMP_temperature;BMP_pressure;BME280_temperature;BME280_humidity;BME280_pressure;Samples;Min_cycle;Max_cycle;Signal;HPM_P1;HPM_P2
2023/01/06 00:05:10;;;;;;;8.07;3.10;;;;;;;10.61;100.00;100934.09;20863078;28;20447;-77
2023/01/06 00:15:11;;;;;;;6.95;3.47;;;;;;;10.63;100.00;100923.59;20862327;28;20519;-76
2023/01/06 00:25:13;;;;;;;6.57;2.80;;;;;;;10.60;100.00;100916.66;20868315;28;20110;-77
2023/01/06 00:35:14;;;;;;;8.52;3.53;;;;;;;10.68;100.00;100909.59;20864237;28;20053;-77
2023/01/06 00:45:15;;;;;;;8.50;2.75;;;;;;;10.59;100.00;100898.31;20865206;28;20501;-77
2023/01/06 00:55:17;;;;;;;6.72;2.85;;;;;;;10.35;100.00;100889.78;20857217;28;20095;-77
2023/01/06 01:05:18;;;;;;;8.50;2.78;;;;;;;10.38;100.00;100889.75;20841753;28;20123;-78
2023/01/06 01:15:19;;;;;;;7.50;2.85;;;;;;;10.43;100.00;100893.19;20861903;28;20164;-77
2023/01/06 01:25:21;;;;;;;6.00;2.80;;;;;;;10.42;100.00;100898.44;20859936;28;20293;-75
2023/01/06 01:35:22;;;;;;;6.00;2.75;;;;;;;10.45;100.00;100891.44;20873430;28;20104;-75
2023/01/06 01:45:23;;;;;;;8.88;2.65;;;;;;;10.45;100.00;100891.44;20874242;28;20045;-75
2023/01/06 01:55:24;;;;;;;6.60;2.90;;;;;;;10.49;100.00;100893.16;20874637;28;20053;-78
2023/01/06 02:05:26;;;;;;;6.97;2.63;;;;;;;10.39;100.00;100880.13;20873238;28;20045;-77
2023/01/06 02:15:27;;;;;;;8.93;4.00;;;;;;;10.34;100.00;100882.78;20876573;28;20140;-76
2023/01/06 02:25:28;;;;;;;9.27;3.78;;;;;;;10.19;100.00;100885.47;20873470;28;20054;-79
2023/01/06 02:35:30;;;;;;;7.25;3.55;;;;;;;10.00;100.00;100876.88;20871476;28;20042;-77
2023/01/06 02:45:31;;;;;;;9.50;3.80;;;;;;;9.83;100.00;100890.06;20870621;28;20053;-77
2023/01/06 02:55:32;;;;;;;8.73;3.95;;;;;;;9.72;100.00;100883.97;20871905;28;20045;-77
2023/01/06 03:05:33;;;;;;;9.18;5.00;;;;;;;9.50;100.00;100878.84;20869800;28;20053;-79
2023/01/06 03:15:35;;;;;;;9.45;4.90;;;;;;;9.31;100.00;100884.16;20865384;28;20053;-77
2023/01/06 03:25:36;;;;;;;10.75;4.68;;;;;;;9.18;100.00;100883.31;20867234;28;20466;-75
2023/01/06 03:35:37;;;;;;;7.80;4.30;;;;;;;9.06;100.00;100873.75;20863731;28;20048;-75
2023/01/06 03:45:38;;;;;;;8.13;4.90;;;;;;;8.95;100.00;100876.38;20862965;28;20103;-75
2023/01/06 03:55:40;;;;;;;8.15;4.40;;;;;;;9.02;100.00;100869.41;20862576;28;20111;-75
2023/01/06 04:05:41;;;;;;;11.30;5.00;;;;;;;9.17;100.00;100866.75;20861714;28;20052;-75
2023/01/06 04:15:42;;;;;;;8.15;4.70;;;;;;;9.30;100.00;100856.28;20859208;28;20041;-75
2023/01/06 04:25:44;;;;;;;7.32;4.05;;;;;;;9.39;100.00;100846.66;20866297;28;20100;-75
2023/01/06 04:35:45;;;;;;;8.02;3.40;;;;;;;9.56;100.00;100830.91;20859610;28;20080;-75
2023/01/06 04:45:46;;;;;;;5.25;2.80;;;;;;;9.66;100.00;100823.88;20858774;28;20054;-75
2023/01/06 04:55:48;;;;;;;6.35;2.75;;;;;;;9.63;100.00;100818.66;20858235;28;20060;-75
2023/01/06 05:05:49;;;;;;;5.38;2.55;;;;;;;9.63;100.00;100798.63;20854916;28;20072;-75
2023/01/06 05:15:50;;;;;;;5.53;2.67;;;;;;;9.67;100.00;100799.47;20855513;28;20049;-75
2023/01/06 05:25:51;;;;;;;6.68;2.75;;;;;;;9.70;100.00;100809.91;20860428;28;20108;-75
2023/01/06 05:35:52;;;;;;;6.10;3.00;;;;;;;9.86;100.00;100823.75;20855460;28;20071;-75
2023/01/06 05:45:54;;;;;;;8.45;3.38;;;;;;;9.80;100.00;100822.06;20853291;28;20049;-75
2023/01/06 05:55:55;;;;;;;9.30;3.10;;;;;;;9.83;100.00;100837.75;20859411;28;20394;-75
2023/01/06 06:05:56;;;;;;;5.53;2.50;;;;;;;9.88;100.00;100835.97;20855417;28;20100;-75
2023/01/06 06:15:57;;;;;;;5.72;2.08;;;;;;;9.95;100.00;100855.97;20864487;28;20053;-75
2023/01/06 06:25:59;;;;;;;5.40;2.42;;;;;;;10.00;100.00;100856.81;20873853;28;20102;-74
2023/01/06 06:36:00;;;;;;;4.80;2.00;;;;;;;10.01;100.00;100857.66;20867424;28;20045;-76
2023/01/06 06:46:01;;;;;;;4.28;1.90;;;;;;;10.05;100.00;100864.63;20867530;28;20068;-75
2023/01/06 06:56:03;;;;;;;2.65;1.25;;;;;;;9.96;100.00;100878.63;20864831;28;20057;-76
2023/01/06 07:06:04;;;;;;;4.63;1.58;;;;;;;9.98;100.00;100894.34;20865538;28;20053;-75
2023/01/06 07:16:05;;;;;;;3.80;0.90;;;;;;;10.02;100.00;100896.94;20863910;28;20108;-74
2023/01/06 07:26:07;;;;;;;2.35;0.80;;;;;;;10.13;100.00;100909.06;20864446;28;20057;-75
2023/01/06 07:36:08;;;;;;;3.45;0.70;;;;;;;10.18;100.00;100894.22;20864064;28;20052;-75
2023/01/06 07:46:09;;;;;;;1.38;0.63;;;;;;;10.18;100.00;100928.22;20850198;28;20049;-75
2023/01/06 07:56:11;;;;;;;1.85;0.52;;;;;;;10.21;100.00;100926.47;20869859;28;20114;-75
2023/01/06 08:06:12;;;;;;;2.95;0.75;;;;;;;10.24;100.00;100928.22;20865563;28;20536;-74
2023/01/06 08:16:13;;;;;;;1.52;0.50;;;;;;;10.33;100.00;100925.56;20860970;28;20049;-75
2023/01/06 08:26:14;;;;;;;4.80;0.63;;;;;;;10.34;100.00;100940.38;20861411;28;20541;-74
2023/01/06 08:36:16;;;;;;;1.42;0.57;;;;;;;10.34;100.00;100947.34;20860821;28;20413;-77
2023/01/06 08:46:17;;;;;;;3.75;0.65;;;;;;;10.38;100.00;100943.84;20861220;28;20114;-77
2023/01/06 08:56:18;;;;;;;3.30;0.52;;;;;;;10.47;100.00;100957.75;20860388;28;20071;-75
2023/01/06 09:06:20;;;;;;;1.95;0.55;;;;;;;10.67;100.00;100954.13;20861789;28;20049;-76
2023/01/06 09:16:21;;;;;;;1.40;0.30;;;;;;;10.68;100.00;100927.94;20881296;28;20049;-75
2023/01/06 09:26:22;;;;;;;3.03;0.50;;;;;;;10.80;100.00;100919.09;20860457;28;20052;-75
2023/01/06 09:36:24;;;;;;;1.90;0.70;;;;;;;10.83;100.00;100936.53;20856241;28;20053;-75
2023/01/06 09:46:25;;;;;;;2.47;0.85;;;;;;;11.13;100.00;100933.66;20860209;28;20055;-75
2023/01/06 09:56:26;;;;;;;2.58;0.60;;;;;;;11.39;100.00;100920.28;20869714;28;20071;-74
2023/01/06 10:06:27;;;;;;;2.10;0.50;;;;;;;11.51;100.00;100911.41;20869895;28;20057;-74
2023/01/06 10:26:45;;;;;;;4.03;1.65;;;;;;;11.64;100.00;100920.91;13244109;26;20046;-79
2023/01/06 10:36:46;;;;;;;3.00;1.27;;;;;;;12.09;100.00;100931.72;20607090;28;20109;-79
2023/01/06 10:46:48;;;;;;;1.35;0.60;;;;;;;12.00;100.00;100910.84;20632851;28;20109;-79
2023/01/06 10:56:50;;;;;;;4.65;2.00;;;;;;;11.86;100.00;100915.41;20607587;28;20054;-79
2023/01/06 11:06:51;;;;;;;1.55;0.45;;;;;;;11.87;100.00;100933.75;20614872;28;20066;-80
2023/01/06 11:16:52;;;;;;;2.45;0.60;;;;;;;11.77;100.00;100917.22;20628539;28;20420;-80
2023/01/06 11:26:54;;;;;;;4.35;1.15;;;;;;;11.94;100.00;100911.78;20887574;23;20453;-77
2023/01/06 11:36:56;;;;;;;1.77;0.70;;;;;;;11.91;100.00;100896.09;20859734;28;20059;-75
2023/01/06 11:46:57;;;;;;;4.25;1.13;;;;;;;11.73;100.00;100906.78;20862351;28;20055;-75
2023/01/06 11:56:59;;;;;;;2.33;0.77;;;;;;;11.91;100.00;100889.97;20863052;28;20061;-75
2023/01/06 12:07:00;;;;;;;1.20;0.60;;;;;;;11.76;100.00;100883.13;20860266;28;20156;-75
2023/01/06 12:17:01;;;;;;;4.15;1.05;;;;;;;11.74;100.00;100861.31;20860222;28;20056;-75
2023/01/06 12:27:03;;;;;;;1.33;0.60;;;;;;;11.63;100.00;100863.19;20861839;28;20049;-74
2023/01/06 12:37:04;;;;;;;2.53;0.82;;;;;;;11.45;100.00;100872.13;20861270;28;20053;-74
2023/01/06 12:47:05;;;;;;;4.38;1.08;;;;;;;11.61;100.00;100857.09;20884902;28;20121;-73
2023/01/06 12:57:07;;;;;;;3.40;0.80;;;;;;;11.52;100.00;100864.19;20871672;28;20083;-75
2023/01/06 13:07:08;;;;;;;4.38;0.63;;;;;;;11.47;100.00;100850.28;20855412;28;20071;-74
2023/01/06 13:17:09;;;;;;;4.60;1.80;;;;;;;11.48;100.00;100852.00;20859036;28;20064;-75
2023/01/06 13:27:11;;;;;;;3.10;1.17;;;;;;;11.37;100.00;100860.91;20873729;28;20111;-74
2023/01/06 13:37:12;;;;;;;6.20;1.77;;;;;;;11.48;100.00;100859.88;20872891;28;20064;-74
2023/01/06 13:47:13;;;;;;;2.78;1.15;;;;;;;11.38;100.00;100866.09;20872147;28;20052;-74
2023/01/06 13:57:15;;;;;;;2.55;1.08;;;;;;;11.27;100.00;100875.84;20876958;28;20473;-74
2023/01/06 14:07:16;;;;;;;2.28;1.10;;;;;;;11.22;100.00;100878.53;20868348;28;20484;-74
2023/01/06 14:17:17;;;;;;;3.10;1.00;;;;;;;11.26;100.00;100866.25;20867703;28;20052;-74
2023/01/06 14:27:18;;;;;;;2.58;1.00;;;;;;;11.16;100.00;100869.84;20869812;28;20049;-74
2023/01/06 14:37:20;;;;;;;5.03;2.00;;;;;;;11.12;100.00;100868.16;20866745;28;20425;-74
2023/01/06 14:47:21;;;;;;;1.52;0.68;;;;;;;11.02;100.00;100878.75;20867556;28;20053;-74
2023/01/06 14:57:22;;;;;;;2.67;0.68;;;;;;;10.98;100.00;100881.41;20866882;28;20084;-74
2023/01/06 15:07:24;;;;;;;2.55;0.75;;;;;;;10.77;100.00;100871.97;20863108;28;20056;-74
2023/01/06 15:17:25;;;;;;;2.28;0.82;;;;;;;10.78;100.00;100889.44;20864275;28;20057;-74
2023/01/06 15:27:26;;;;;;;2.25;0.50;;;;;;;10.66;100.00;100881.69;20863668;28;20053;-74
2023/01/06 15:37:30;;;;;;;1.83;0.57;;;;;;;10.52;100.00;100882.66;20862324;28;20061;-74
2023/01/06 15:47:31;;;;;;;2.42;1.00;;;;;;;10.47;100.00;100884.44;20861789;28;20493;-74
2023/01/06 15:57:32;;;;;;;2.83;1.13;;;;;;;10.42;100.00;100886.22;20863074;28;20065;-74
2023/01/06 16:07:34;;;;;;;4.72;2.10;;;;;;;10.21;100.00;100882.00;20859649;28;20061;-74
2023/01/06 16:17:36;;;;;;;6.20;2.03;;;;;;;10.02;100.00;100870.75;20861748;28;20088;-74
2023/01/06 16:27:37;;;;;;;3.70;1.50;;;;;;;9.86;100.00;100871.72;20856029;28;20080;-74
2023/01/06 16:37:39;;;;;;;2.42;0.80;;;;;;;9.74;100.00;100863.94;20860860;28;20555;-74
2023/01/06 16:47:40;;;;;;;3.95;1.27;;;;;;;9.62;100.00;100872.69;20858310;28;20139;-74
2023/01/06 16:57:41;;;;;;;6.80;2.45;;;;;;;9.47;100.00;100881.47;20865256;28;20057;-74
2023/01/06 17:07:43;;;;;;;2.92;1.30;;;;;;;9.44;100.00;100894.56;20868380;28;20420;-74
2023/01/06 17:17:44;;;;;;;4.50;1.40;;;;;;;9.43;100.00;100911.09;20873582;28;20528;-74
2023/01/06 17:27:47;;;;;;;3.03;1.27;;;;;;;9.51;100.00;100911.94;20850888;28;20058;-75
2023/01/06 17:37:48;;;;;;;2.95;1.20;;;;;;;9.52;100.00;100921.53;20849851;28;20475;-75
2023/01/06 17:47:49;;;;;;;4.65;1.88;;;;;;;9.50;100.00;100915.44;20847475;28;20056;-75
2023/01/06 17:57:51;;;;;;;6.30;3.25;;;;;;;9.54;100.00;100918.94;20845652;28;20065;-75
2023/01/06 18:07:52;;;;;;;5.10;2.72;;;;;;;9.46;100.00;100921.56;20848951;28;20060;-74
2023/01/06 18:17:53;;;;;;;8.90;5.65;;;;;;;9.47;100.00;100927.66;20865901;28;20053;-74
2023/01/06 18:27:55;;;;;;;6.43;3.83;;;;;;;9.51;100.00;100938.09;20861288;28;20063;-74
2023/01/06 18:37:56;;;;;;;13.25;7.78;;;;;;;9.46;100.00;100941.59;20857525;28;20053;-74
2023/01/06 18:47:57;;;;;;;17.00;10.77;;;;;;;9.44;100.00;100941.63;20859036;28;20061;-75
2023/01/06 18:57:58;;;;;;;12.40;7.82;;;;;;;9.36;100.00;100940.75;20859393;28;20063;-75
2023/01/06 19:08:00;;;;;;;8.13;4.50;;;;;;;9.36;100.00;100935.53;20857341;28;20059;-74
2023/01/06 19:18:01;;;;;;;5.22;2.42;;;;;;;9.38;100.00;100944.22;20859505;28;20049;-74
2023/01/06 19:28:02;;;;;;;12.02;8.90;;;;;;;9.30;100.00;100943.38;20856029;28;20057;-74
2023/01/06 19:38:04;;;;;;;10.20;6.00;;;;;;;9.18;100.00;100930.31;20853707;28;20414;-75
2023/01/06 19:48:05;;;;;;;7.68;4.70;;;;;;;8.82;100.00;100929.50;20858026;28;20427;-74
2023/01/06 19:58:06;;;;;;;9.38;4.95;;;;;;;8.82;100.00;100919.06;20853927;28;20057;-74
2023/01/06 20:08:08;;;;;;;9.57;6.20;;;;;;;8.77;100.00;100917.28;20852963;28;20053;-75
2023/01/06 20:18:09;;;;;;;9.40;4.70;;;;;;;8.87;100.00;100924.28;20861718;28;20053;-75
2023/01/06 20:28:10;;;;;;;8.05;3.92;;;;;;;8.97;100.00;100924.25;20852641;28;20049;-75
2023/01/06 20:38:12;;;;;;;7.50;3.75;;;;;;;8.96;100.00;100917.31;20850597;28;20053;-75
2023/01/06 20:48:13;;;;;;;5.40;2.42;;;;;;;9.03;100.00;100912.06;20851447;28;20429;-75
2023/01/06 20:58:14;;;;;;;10.18;4.93;;;;;;;9.05;100.00;100907.69;20850297;28;20057;-73
2023/01/06 21:08:16;;;;;;;7.82;3.90;;;;;;;9.10;100.00;100901.63;20848755;28;20060;-74
2023/01/06 21:18:17;;;;;;;11.50;5.20;;;;;;;9.17;100.00;100892.03;20851858;28;20124;-74
2023/01/06 21:28:18;;;;;;;9.48;4.80;;;;;;;9.22;100.00;100895.50;20848634;28;20072;-73
2023/01/06 21:38:20;;;;;;;13.10;5.63;;;;;;;9.28;100.00;100885.00;20852300;28;20190;-74
2023/01/06 21:48:24;;;;;;;10.73;4.60;;;;;;;9.23;100.00;100876.31;20886551;28;20065;-73
2023/01/06 21:58:25;;;;;;;8.38;5.43;;;;;;;9.29;100.00;100860.63;20867818;28;20053;-73
2023/01/06 22:08:27;;;;;;;7.47;3.90;;;;;;;9.25;100.00;100856.31;20862090;28;20069;-73
2023/01/06 22:18:28;;;;;;;5.00;2.30;;;;;;;9.40;100.00;100852.75;20861956;28;20148;-73
2023/01/06 22:28:29;;;;;;;7.38;3.58;;;;;;;9.31;100.00;100850.19;20861156;28;20075;-73
2023/01/06 22:38:31;;;;;;;5.30;2.60;;;;;;;9.32;100.00;100839.72;20859720;28;20072;-73
2023/01/06 22:48:32;;;;;;;5.80;2.65;;;;;;;9.30;100.00;100841.47;20859855;28;20473;-74
2023/01/06 22:58:33;;;;;;;10.38;5.85;;;;;;;9.35;100.00;100850.16;20858005;28;20057;-74
2023/01/06 23:08:35;;;;;;;6.55;2.90;;;;;;;9.31;100.00;100847.56;20861423;28;20523;-73
2023/01/06 23:18:40;;;;;;;6.40;2.58;;;;;;;9.30;100.00;100844.09;20866851;28;20057;-73
2023/01/06 23:28:42;;;;;;;5.28;2.58;;;;;;;9.32;100.00;100839.72;20864607;28;20053;-73
2023/01/06 23:38:43;;;;;;;5.18;2.42;;;;;;;9.36;100.00;100835.34;20863600;28;20056;-73
2023/01/06 23:48:44;;;;;;;5.82;2.20;;;;;;;9.39;100.00;100833.59;20862859;28;20083;-73
2023/01/06 23:58:45;;;;;;;5.93;2.63;;;;;;;9.46;100.00;100832.69;20862199;28;20064;-73
